^^
Your Local Weather - Clay, NY Station Historical Data
Daily Summary for March 9, 2017 Units:  English    Metric   Both
« Previous Day
Next Day »
Daily Weekly Monthly Yearly Custom
  High: Low: Average:
Temperature: 39.8 °F 29.1 °F 34.3 °F
Dew Point: 26.0 °F 20.0 °F 23 °F
Humidity: 86% 49% 63%
Wind Speed: 9.0mph 0.0mph 3.6mph
Wind Gust: 15.0mph - -
Wind- - WNW
Pressure: 30.05 in 29.81 in -
Precipitation: 0.00 in    
Historical Graphs
 
 
Tabular Data for March 9, 2017
Time Temperature Dew Point Pressure Wind Wind Speed Wind Gust Humidity Rainfall Rate (Hourly) solar
00:04 39.5 °F 24.2 °F 29.81 in WNW 2.0 mph 3.0 mph 54% 0.00 in 0 W/m2
00:10 39.7 °F 24.0 °F 29.81 in WNW 3.0 mph 3.0 mph 53% 0.00 in 0 W/m2
00:16 39.8 °F 23.6 °F 29.82 in West 3.0 mph 3.0 mph 52% 0.00 in 0 W/m2
00:22 39.7 °F 23.5 °F 29.82 in WNW 2.0 mph 5.0 mph 52% 0.00 in 0 W/m2
00:28 39.4 °F 23.2 °F 29.82 in WNW 2.0 mph 5.0 mph 52% 0.00 in 0 W/m2
00:34 39.4 °F 23.7 °F 29.82 in NW 2.0 mph 5.0 mph 53% 0.00 in 0 W/m2
00:40 39.2 °F 24.4 °F 29.82 in NNW 2.0 mph 2.0 mph 55% 0.00 in 0 W/m2
00:46 38.7 °F 23.5 °F 29.82 in WNW 2.0 mph 3.0 mph 54% 0.00 in 0 W/m2
00:52 38.8 °F 24.0 °F 29.83 in WNW 3.0 mph 4.0 mph 55% 0.00 in 0 W/m2
00:58 39.0 °F 24.2 °F 29.81 in WNW 4.0 mph 6.0 mph 55% 0.00 in 0 W/m2
01:04 38.8 °F 24.0 °F 29.82 in WNW 4.0 mph 4.0 mph 55% 0.00 in 0 W/m2
01:10 38.9 °F 23.2 °F 29.83 in WNW 5.0 mph 5.0 mph 53% 0.00 in 0 W/m2
01:16 38.7 °F 23.0 °F 29.83 in WNW 4.0 mph 5.0 mph 53% 0.00 in 0 W/m2
01:22 38.6 °F 22.5 °F 29.83 in WNW 5.0 mph 6.0 mph 52% 0.00 in 0 W/m2
01:28 38.4 °F 22.3 °F 29.83 in WNW 4.0 mph 6.0 mph 52% 0.00 in 0 W/m2
01:34 38.2 °F 22.1 °F 29.83 in WNW 3.0 mph 7.0 mph 52% 0.00 in 0 W/m2
01:40 38.1 °F 22.0 °F 29.83 in West 3.0 mph 3.0 mph 52% 0.00 in 0 W/m2
01:46 37.9 °F 21.8 °F 29.83 in WNW 3.0 mph 6.0 mph 52% 0.00 in 0 W/m2
01:52 37.9 °F 22.3 °F 29.83 in WNW 3.0 mph 3.0 mph 53% 0.00 in 0 W/m2
01:58 37.7 °F 21.6 °F 29.83 in WNW 3.0 mph 7.0 mph 52% 0.00 in 0 W/m2
02:04 37.7 °F 21.6 °F 29.83 in WNW 3.0 mph 3.0 mph 52% 0.00 in 0 W/m2
02:10 37.4 °F 21.4 °F 29.83 in WNW 3.0 mph 5.0 mph 52% 0.00 in 0 W/m2
02:16 37.4 °F 21.8 °F 29.83 in WNW 3.0 mph 5.0 mph 53% 0.00 in 0 W/m2
02:22 37.3 °F 22.2 °F 29.83 in NW 3.0 mph 3.0 mph 54% 0.00 in 0 W/m2
02:28 37.0 °F 21.9 °F 29.83 in NW 1.0 mph 3.0 mph 54% 0.00 in 0 W/m2
02:34 37.0 °F 21.9 °F 29.84 in WNW 2.0 mph 5.0 mph 54% 0.00 in 0 W/m2
02:40 37.1 °F 22.0 °F 29.84 in West 3.0 mph 3.0 mph 54% 0.00 in 0 W/m2
02:46 37.1 °F 22.4 °F 29.84 in NNW 3.0 mph 4.0 mph 55% 0.00 in 0 W/m2
02:52 37.1 °F 22.4 °F 29.84 in WNW 3.0 mph 5.0 mph 55% 0.00 in 0 W/m2
02:58 37.0 °F 22.7 °F 29.84 in WNW 3.0 mph 5.0 mph 56% 0.00 in 0 W/m2
03:04 36.9 °F 23.1 °F 29.84 in WNW 2.0 mph 3.0 mph 57% 0.00 in 0 W/m2
03:10 36.8 °F 23.0 °F 29.85 in West 2.0 mph 2.0 mph 57% 0.00 in 0 W/m2
03:16 36.7 °F 23.3 °F 29.84 in WSW 1.0 mph 2.0 mph 58% 0.00 in 0 W/m2
03:22 36.5 °F 23.1 °F 29.85 in WSW 1.0 mph 2.0 mph 58% 0.00 in 0 W/m2
03:28 36.4 °F 23.0 °F 29.86 in WNW 2.0 mph 3.0 mph 58% 0.00 in 0 W/m2
03:34 36.7 °F 22.5 °F 29.86 in WNW 3.0 mph 6.0 mph 56% 0.00 in 0 W/m2
03:40 37.0 °F 21.9 °F 29.86 in WNW 4.0 mph 5.0 mph 54% 0.00 in 0 W/m2
03:46 37.1 °F 21.1 °F 29.86 in West 5.0 mph 5.0 mph 52% 0.00 in 0 W/m2
03:52 37.4 °F 20.9 °F 29.86 in West 5.0 mph 5.0 mph 51% 0.00 in 0 W/m2
03:58 37.6 °F 20.1 °F 29.86 in WNW 6.0 mph 12.0 mph 49% 0.00 in 0 W/m2
04:04 37.1 °F 23.3 °F 29.87 in WNW 8.0 mph 13.0 mph 57% 0.00 in 0 W/m2
04:10 35.9 °F 23.7 °F 29.89 in WNW 8.0 mph 8.0 mph 61% 0.00 in 0 W/m2
04:16 35.4 °F 24.0 °F 29.89 in NNE 8.0 mph 8.0 mph 63% 0.00 in 0 W/m2
04:22 35.2 °F 23.9 °F 29.89 in WNW 9.0 mph 9.0 mph 63% 0.00 in 0 W/m2
04:28 34.9 °F 23.6 °F 29.89 in West 7.0 mph 13.0 mph 63% 0.00 in 0 W/m2
04:34 34.9 °F 23.2 °F 29.90 in NW 7.0 mph 9.0 mph 62% 0.00 in 0 W/m2
04:40 34.7 °F 22.6 °F 29.90 in WSW 8.0 mph 8.0 mph 61% 0.00 in 0 W/m2
04:46 34.6 °F 21.7 °F 29.91 in NNW 8.0 mph 10.0 mph 59% 0.00 in 0 W/m2
04:52 34.5 °F 21.2 °F 29.91 in West 9.0 mph 15.0 mph 58% 0.00 in 0 W/m2
04:58 34.1 °F 21.3 °F 29.91 in WNW 9.0 mph 15.0 mph 59% 0.00 in 0 W/m2
05:04 33.5 °F 20.7 °F 29.91 in NW 8.0 mph 11.0 mph 59% 0.00 in 0 W/m2
05:10 33.2 °F 20.8 °F 29.92 in NNW 7.0 mph 7.0 mph 60% 0.00 in 0 W/m2
05:16 33.0 °F 20.6 °F 29.92 in North 6.0 mph 7.0 mph 60% 0.00 in 0 W/m2
05:22 32.8 °F 20.4 °F 29.93 in WNW 6.0 mph 6.0 mph 60% 0.00 in 0 W/m2
05:28 32.7 °F 20.3 °F 29.94 in WNW 6.0 mph 8.0 mph 60% 0.00 in 0 W/m2
05:34 32.5 °F 20.5 °F 29.94 in WNW 7.0 mph 8.0 mph 61% 0.00 in 0 W/m2
05:40 32.1 °F 20.9 °F 29.95 in NNW 8.0 mph 11.0 mph 63% 0.00 in 0 W/m2
05:46 31.7 °F 20.5 °F 29.95 in North 8.0 mph 11.0 mph 63% 0.00 in 0 W/m2
05:52 31.3 °F 20.5 °F 29.95 in WNW 6.0 mph 7.0 mph 64% 0.00 in 0 W/m2
05:58 31.0 °F 20.6 °F 29.95 in NW 5.0 mph 7.0 mph 65% 0.00 in 0 W/m2
06:04 30.7 °F 20.3 °F 29.95 in WNW 4.0 mph 5.0 mph 65% 0.00 in 0 W/m2
06:10 30.6 °F 20.2 °F 29.96 in WNW 5.0 mph 5.0 mph 65% 0.00 in 0 W/m2
06:16 30.5 °F 20.1 °F 29.96 in NW 5.0 mph 7.0 mph 65% 0.00 in 0 W/m2
06:22 30.5 °F 20.1 °F 29.97 in NW 4.0 mph 4.0 mph 65% 0.00 in 0 W/m2
06:28 30.4 °F 20.0 °F 29.97 in NW 4.0 mph 6.0 mph 65% 0.00 in 0 W/m2
06:34 30.4 °F 20.0 °F 29.97 in WNW 4.0 mph 12.0 mph 65% 0.00 in 0 W/m2
06:40 30.3 °F 20.3 °F 29.97 in WNW 5.0 mph 6.0 mph 66% 0.00 in 5 W/m2
06:46 30.3 °F 20.6 °F 29.97 in WNW 5.0 mph 6.0 mph 67% 0.00 in 7 W/m2
06:52 30.2 °F 21.2 °F 29.98 in NW 4.0 mph 5.0 mph 69% 0.00 in 12 W/m2
06:58 30.1 °F 21.5 °F 29.98 in WNW 4.0 mph 5.0 mph 70% 0.00 in 16 W/m2
07:04 30.1 °F 21.5 °F 29.98 in WNW 3.0 mph 4.0 mph 70% 0.00 in 16 W/m2
07:10 30.1 °F 21.5 °F 29.98 in NW 3.0 mph 3.0 mph 70% 0.00 in 28 W/m2
07:16 30.2 °F 21.6 °F 29.99 in WNW 3.0 mph 6.0 mph 70% 0.00 in 30 W/m2
07:22 30.3 °F 21.7 °F 29.98 in NW 2.0 mph 4.0 mph 70% 0.00 in 26 W/m2
07:28 30.4 °F 22.1 °F 29.98 in WNW 3.0 mph 4.0 mph 71% 0.00 in 35 W/m2
07:34 30.5 °F 22.5 °F 29.99 in WNW 3.0 mph 4.0 mph 72% 0.00 in 25 W/m2
07:40 30.5 °F 22.5 °F 29.99 in WNW 3.0 mph 3.0 mph 72% 0.00 in 18 W/m2
07:46 30.4 °F 22.8 °F 29.99 in WNW 3.0 mph 3.0 mph 73% 0.00 in 19 W/m2
07:52 30.0 °F 23.4 °F 30.00 in WNW 3.0 mph 3.0 mph 76% 0.00 in 37 W/m2
07:58 29.4 °F 24.0 °F 30.00 in WNW 3.0 mph 3.0 mph 80% 0.00 in 33 W/m2
08:04 29.2 °F 24.4 °F 30.00 in WSW 3.0 mph 3.0 mph 82% 0.00 in 23 W/m2
08:10 29.1 °F 24.9 °F 30.00 in West 4.0 mph 4.0 mph 84% 0.00 in 76 W/m2
08:16 29.1 °F 25.2 °F 30.00 in WNW 5.0 mph 9.0 mph 85% 0.00 in 60 W/m2
08:22 29.5 °F 25.8 °F 30.00 in West 5.0 mph 5.0 mph 86% 0.00 in 116 W/m2
08:28 29.9 °F 25.9 °F 30.00 in West 4.0 mph 5.0 mph 85% 0.00 in 123 W/m2
08:34 30.3 °F 26.0 °F 30.00 in WNW 4.0 mph 6.0 mph 84% 0.00 in 65 W/m2
08:40 30.6 °F 25.8 °F 30.00 in WNW 4.0 mph 4.0 mph 82% 0.00 in 46 W/m2
08:46 30.8 °F 25.4 °F 30.00 in WNW 3.0 mph 4.0 mph 80% 0.00 in 63 W/m2
08:52 30.8 °F 25.4 °F 30.00 in WNW 3.0 mph 4.0 mph 80% 0.00 in 74 W/m2
08:58 30.8 °F 25.7 °F 30.00 in WNW 2.0 mph 4.0 mph 81% 0.00 in 77 W/m2
09:04 30.9 °F 25.5 °F 30.00 in NW 2.0 mph 6.0 mph 80% 0.00 in 77 W/m2
09:10 31.2 °F 25.1 °F 30.00 in WNW 3.0 mph 3.0 mph 78% 0.00 in 84 W/m2
09:16 31.4 °F 25.3 °F 30.00 in WNW 3.0 mph 5.0 mph 78% 0.00 in 109 W/m2
09:22 31.6 °F 24.3 °F 30.00 in WNW 4.0 mph 10.0 mph 74% 0.00 in 102 W/m2
09:28 31.6 °F 23.9 °F 30.00 in West 6.0 mph 14.0 mph 73% 0.00 in 107 W/m2
09:34 31.5 °F 24.2 °F 30.00 in NW 6.0 mph 8.0 mph 74% 0.00 in 139 W/m2
09:40 31.7 °F 24.0 °F 30.00 in WNW 5.0 mph 6.0 mph 73% 0.00 in 144 W/m2
09:46 31.6 °F 24.3 °F 30.01 in West 6.0 mph 8.0 mph 74% 0.00 in 160 W/m2
09:52 31.5 °F 23.8 °F 30.01 in WNW 7.0 mph 7.0 mph 73% 0.00 in 197 W/m2
09:58 31.7 °F 24.4 °F 30.01 in NW 6.0 mph 9.0 mph 74% 0.00 in 128 W/m2
10:04 32.1 °F 24.1 °F 30.01 in WNW 6.0 mph 6.0 mph 72% 0.00 in 241 W/m2
10:10 32.5 °F 23.5 °F 30.02 in WNW 6.0 mph 6.0 mph 69% 0.00 in 200 W/m2
10:16 32.9 °F 23.1 °F 30.01 in West 7.0 mph 7.0 mph 67% 0.00 in 223 W/m2
10:22 33.4 °F 23.6 °F 30.02 in NW 6.0 mph 13.0 mph 67% 0.00 in 341 W/m2
10:28 34.1 °F 23.6 °F 30.02 in West 6.0 mph 13.0 mph 65% 0.00 in 255 W/m2
10:34 34.3 °F 23.0 °F 30.02 in WNW 7.0 mph 11.0 mph 63% 0.00 in 246 W/m2
10:40 34.5 °F 23.9 °F 30.01 in West 6.0 mph 8.0 mph 65% 0.00 in 262 W/m2
10:46 35.3 °F 24.7 °F 30.01 in West 5.0 mph 8.0 mph 65% 0.00 in 482 W/m2
10:52 35.7 °F 24.3 °F 30.00 in NW 5.0 mph 5.0 mph 63% 0.00 in 369 W/m2
10:58 36.4 °F 25.7 °F 30.00 in NW 4.0 mph 6.0 mph 65% 0.00 in 527 W/m2
11:04 36.5 °F 25.5 °F 30.00 in North 5.0 mph 7.0 mph 64% 0.00 in 346 W/m2
11:10 36.4 °F 25.4 °F 30.00 in NW 5.0 mph 5.0 mph 64% 0.00 in 294 W/m2
11:16 35.7 °F 25.1 °F 30.01 in NW 5.0 mph 8.0 mph 65% 0.00 in 237 W/m2
11:22 35.1 °F 24.9 °F 30.01 in WNW 5.0 mph 5.0 mph 66% 0.00 in 294 W/m2
11:28 35.3 °F 25.4 °F 30.01 in WNW 4.0 mph 5.0 mph 67% 0.00 in 246 W/m2
11:34 35.3 °F 25.1 °F 30.00 in WNW 5.0 mph 6.0 mph 66% 0.00 in 237 W/m2
11:40 36.0 °F 25.4 °F 30.01 in NW 5.0 mph 5.0 mph 65% 0.00 in 334 W/m2
11:46 36.8 °F 24.6 °F 30.01 in WNW 4.0 mph 5.0 mph 61% 0.00 in 622 W/m2
11:52 37.2 °F 25.4 °F 30.01 in WNW 4.0 mph 9.0 mph 62% 0.00 in 367 W/m2
11:58 36.2 °F 24.0 °F 30.01 in NW 6.0 mph 9.0 mph 61% 0.00 in 172 W/m2
12:04 36.4 °F 25.0 °F 30.01 in NW 6.0 mph 8.0 mph 63% 0.00 in 842 W/m2
12:10 37.1 °F 24.5 °F 30.01 in WNW 6.0 mph 7.0 mph 60% 0.00 in 309 W/m2
12:16 36.8 °F 23.8 °F 30.02 in West 7.0 mph 9.0 mph 59% 0.00 in 357 W/m2
12:22 37.7 °F 25.8 °F 30.02 in West 6.0 mph 7.0 mph 62% 0.00 in 438 W/m2
12:28 36.8 °F 24.6 °F 30.01 in West 5.0 mph 13.0 mph 61% 0.00 in 255 W/m2
12:34 36.3 °F 24.5 °F 30.01 in WNW 6.0 mph 6.0 mph 62% 0.00 in 204 W/m2
12:40 35.9 °F 24.1 °F 30.01 in WNW 6.0 mph 6.0 mph 62% 0.00 in 232 W/m2
12:46 36.6 °F 24.8 °F 30.01 in West 6.0 mph 6.0 mph 62% 0.00 in 809 W/m2
12:52 36.8 °F 25.0 °F 30.01 in WNW 5.0 mph 8.0 mph 62% 0.00 in 176 W/m2
12:58 35.9 °F 24.1 °F 30.01 in NW 5.0 mph 8.0 mph 62% 0.00 in 209 W/m2
13:04 35.5 °F 23.8 °F 30.01 in NNW 6.0 mph 9.0 mph 62% 0.00 in 248 W/m2
13:10 35.4 °F 23.7 °F 30.01 in NW 7.0 mph 8.0 mph 62% 0.00 in 348 W/m2
13:16 35.7 °F 23.9 °F 30.01 in NNW 7.0 mph 8.0 mph 62% 0.00 in 308 W/m2
13:22 36.5 °F 25.8 °F 30.00 in WNW 7.0 mph 7.0 mph 65% 0.00 in 830 W/m2
13:28 36.5 °F 23.9 °F 30.01 in WNW 6.0 mph 8.0 mph 60% 0.00 in 229 W/m2
13:32 36.1 °F 23.9 °F 30.00 in NNW 6.0 mph 9.0 mph 61% 0.00 in 373 W/m2
13:38 36.1 °F 23.5 °F 30.00 in WNW 6.0 mph 9.0 mph 60% 0.00 in 272 W/m2
13:42 36.4 °F 24.6 °F 30.00 in NW 6.0 mph 6.0 mph 62% 0.00 in 237 W/m2
13:46 36.4 °F 23.8 °F 30.00 in NW 5.0 mph 6.0 mph 60% 0.00 in 290 W/m2
13:48 36.2 °F 24.0 °F 30.01 in NNW 5.0 mph 6.0 mph 61% 0.00 in 274 W/m2
13:52 36.7 °F 23.7 °F 30.00 in WNW 5.0 mph 8.0 mph 59% 0.00 in 494 W/m2
13:56 36.5 °F 23.5 °F 30.01 in WNW 6.0 mph 8.0 mph 59% 0.00 in 269 W/m2
14:06 37.0 °F 24.4 °F 30.00 in WNW 5.0 mph 8.0 mph 60% 0.00 in 522 W/m2
14:08 37.2 °F 24.2 °F 30.00 in North 6.0 mph 10.0 mph 59% 0.00 in 427 W/m2
14:14 36.6 °F 23.2 °F 30.01 in WNW 5.0 mph 6.0 mph 58% 0.00 in 262 W/m2
14:18 36.7 °F 23.3 °F 30.00 in WNW 5.0 mph 8.0 mph 58% 0.00 in 476 W/m2
14:24 36.8 °F 23.8 °F 30.00 in NW 6.0 mph 10.0 mph 59% 0.00 in 322 W/m2
14:30 36.5 °F 22.3 °F 30.00 in WSW 6.0 mph 6.0 mph 56% 0.00 in 304 W/m2
14:36 36.5 °F 21.8 °F 30.00 in NW 5.0 mph 6.0 mph 55% 0.00 in 299 W/m2
14:42 36.8 °F 23.0 °F 30.00 in NW 5.0 mph 11.0 mph 57% 0.00 in 533 W/m2
14:48 36.4 °F 22.2 °F 30.00 in NW 7.0 mph 11.0 mph 56% 0.00 in 512 W/m2
14:54 36.4 °F 22.6 °F 30.00 in West 6.0 mph 9.0 mph 57% 0.00 in 301 W/m2
15:00 38.0 °F 22.8 °F 30.00 in North 5.0 mph 8.0 mph 54% 0.00 in 304 W/m2
15:06 37.8 °F 23.9 °F 30.00 in NW 4.0 mph 8.0 mph 57% 0.00 in 367 W/m2
15:12 36.9 °F 22.7 °F 30.00 in NW 5.0 mph 10.0 mph 56% 0.00 in 338 W/m2
15:18 37.0 °F 23.6 °F 30.00 in WNW 5.0 mph 10.0 mph 58% 0.00 in 323 W/m2
15:24 37.0 °F 23.2 °F 30.00 in WNW 4.0 mph 7.0 mph 57% 0.00 in 234 W/m2
15:30 36.5 °F 22.3 °F 30.00 in WNW 5.0 mph 5.0 mph 56% 0.00 in 214 W/m2
15:36 36.2 °F 22.8 °F 30.00 in NW 6.0 mph 10.0 mph 58% 0.00 in 207 W/m2
15:42 35.8 °F 22.5 °F 30.00 in West 6.0 mph 10.0 mph 58% 0.00 in 186 W/m2
15:48 35.7 °F 22.4 °F 30.00 in WNW 6.0 mph 10.0 mph 58% 0.00 in 172 W/m2
15:54 35.6 °F 22.7 °F 30.01 in NW 5.0 mph 6.0 mph 59% 0.00 in 183 W/m2
16:00 35.7 °F 21.9 °F 30.01 in NW 5.0 mph 9.0 mph 57% 0.00 in 146 W/m2
16:06 35.3 °F 22.0 °F 30.01 in NW 6.0 mph 9.0 mph 58% 0.00 in 142 W/m2
16:12 35.2 °F 22.3 °F 30.00 in NNW 4.0 mph 5.0 mph 59% 0.00 in 125 W/m2
16:18 35.2 °F 22.3 °F 30.01 in WNW 4.0 mph 5.0 mph 59% 0.00 in 118 W/m2
16:24 35.1 °F 21.8 °F 30.02 in NW 5.0 mph 6.0 mph 58% 0.00 in 105 W/m2
16:30 35.0 °F 22.5 °F 30.02 in WNW 4.0 mph 5.0 mph 60% 0.00 in 95 W/m2
16:36 34.9 °F 22.8 °F 30.02 in NW 4.0 mph 6.0 mph 61% 0.00 in 104 W/m2
16:42 34.8 °F 22.7 °F 30.02 in NW 5.0 mph 8.0 mph 61% 0.00 in 100 W/m2
16:48 34.6 °F 21.7 °F 30.02 in WNW 5.0 mph 8.0 mph 59% 0.00 in 83 W/m2
16:54 34.6 °F 22.9 °F 30.02 in WNW 5.0 mph 8.0 mph 62% 0.00 in 79 W/m2
17:00 34.6 °F 22.5 °F 30.02 in NW 3.0 mph 4.0 mph 61% 0.00 in 67 W/m2
17:06 34.5 °F 22.8 °F 30.01 in WNW 2.0 mph 4.0 mph 62% 0.00 in 53 W/m2
17:12 34.3 °F 21.8 °F 30.02 in NW 3.0 mph 3.0 mph 60% 0.00 in 40 W/m2
17:18 34.3 °F 21.8 °F 30.02 in WNW 4.0 mph 4.0 mph 60% 0.00 in 39 W/m2
17:24 34.2 °F 22.1 °F 30.02 in NW 4.0 mph 5.0 mph 61% 0.00 in 26 W/m2
17:30 34.2 °F 21.4 °F 30.02 in NW 4.0 mph 4.0 mph 59% 0.00 in 26 W/m2
17:36 34.2 °F 21.7 °F 30.02 in NW 3.0 mph 4.0 mph 60% 0.00 in 19 W/m2
17:42 34.1 °F 21.7 °F 30.02 in WNW 2.0 mph 2.0 mph 60% 0.00 in 16 W/m2
17:48 34.1 °F 21.7 °F 30.02 in WNW 1.0 mph 3.0 mph 60% 0.00 in 9 W/m2
17:54 34.1 °F 21.3 °F 30.02 in NW 2.0 mph 5.0 mph 59% 0.00 in 7 W/m2
18:00 34.1 °F 21.7 °F 30.02 in NW 2.0 mph 2.0 mph 60% 0.00 in 0 W/m2
18:06 34.0 °F 21.6 °F 30.02 in WNW 1.0 mph 3.0 mph 60% 0.00 in 0 W/m2
18:12 34.0 °F 21.6 °F 30.02 in NW 2.0 mph 2.0 mph 60% 0.00 in 0 W/m2
18:18 34.0 °F 21.6 °F 30.02 in West 1.0 mph 3.0 mph 60% 0.00 in 0 W/m2
18:24 34.0 °F 21.6 °F 30.03 in West 1.0 mph 3.0 mph 60% 0.00 in 0 W/m2
18:30 33.9 °F 21.5 °F 30.03 in West 1.0 mph 1.0 mph 60% 0.00 in 0 W/m2
18:36 33.8 °F 21.8 °F 30.03 in Calm   1.0 mph 61% 0.00 in 0 W/m2
18:42 33.7 °F 21.7 °F 30.03 in Calm   2.0 mph 61% 0.00 in 0 W/m2
18:48 33.7 °F 21.7 °F 30.03 in West 1.0 mph 2.0 mph 61% 0.00 in 0 W/m2
18:54 33.8 °F 21.8 °F 30.03 in West 2.0 mph 3.0 mph 61% 0.00 in 0 W/m2
19:00 33.9 °F 21.9 °F 30.03 in WSW 1.0 mph 1.0 mph 61% 0.00 in 0 W/m2
19:06 33.8 °F 22.1 °F 30.04 in Calm   1.0 mph 62% 0.00 in 0 W/m2
19:12 33.7 °F 22.1 °F 30.03 in Calm   1.0 mph 62% 0.00 in 0 W/m2
19:18 33.6 °F 22.3 °F 30.04 in Calm   2.0 mph 63% 0.00 in 0 W/m2
19:24 33.6 °F 22.3 °F 30.04 in Calm     63% 0.00 in 0 W/m2
19:30 33.5 °F 22.2 °F 30.03 in Calm     63% 0.00 in 0 W/m2
19:36 33.4 °F 22.1 °F 30.04 in Calm     63% 0.00 in 0 W/m2
19:42 33.3 °F 22.4 °F 30.03 in Calm     64% 0.00 in 0 W/m2
19:48 33.2 °F 22.3 °F 30.04 in Calm     64% 0.00 in 0 W/m2
19:54 33.1 °F 22.6 °F 30.04 in Calm     65% 0.00 in 0 W/m2
20:00 33.0 °F 22.9 °F 30.04 in Calm     66% 0.00 in 0 W/m2
20:06 32.9 °F 22.8 °F 30.04 in Calm     66% 0.00 in 0 W/m2
20:12 32.8 °F 23.0 °F 30.04 in Calm     67% 0.00 in 0 W/m2
20:18 32.7 °F 22.9 °F 30.03 in Calm     67% 0.00 in 0 W/m2
20:24 32.7 °F 23.3 °F 30.04 in Calm     68% 0.00 in 0 W/m2
20:30 32.6 °F 23.2 °F 30.04 in Calm     68% 0.00 in 0 W/m2
20:36 32.5 °F 23.1 °F 30.05 in Calm     68% 0.00 in 0 W/m2
20:42 32.4 °F 23.4 °F 30.05 in Calm     69% 0.00 in 0 W/m2
20:48 32.5 °F 23.5 °F 30.05 in Calm     69% 0.00 in 0 W/m2
20:54 32.6 °F 23.6 °F 30.05 in Calm     69% 0.00 in 0 W/m2
21:00 32.6 °F 23.2 °F 30.05 in Calm     68% 0.00 in 0 W/m2
21:06 32.6 °F 23.2 °F 30.05 in Calm     68% 0.00 in 0 W/m2
21:12 32.8 °F 23.4 °F 30.05 in Calm     68% 0.00 in 0 W/m2
21:18 32.8 °F 23.4 °F 30.04 in Calm   1.0 mph 68% 0.00 in 0 W/m2
21:24 32.8 °F 23.4 °F 30.04 in Calm   1.0 mph 68% 0.00 in 0 W/m2
21:30 32.9 °F 23.5 °F 30.04 in Calm     68% 0.00 in 0 W/m2
21:36 33.0 °F 23.6 °F 30.04 in Calm   1.0 mph 68% 0.00 in 0 W/m2
21:42 33.0 °F 23.6 °F 30.04 in Calm   1.0 mph 68% 0.00 in 0 W/m2
21:48 33.0 °F 23.6 °F 30.04 in WSW 1.0 mph 2.0 mph 68% 0.00 in 0 W/m2
21:54 33.0 °F 23.6 °F 30.03 in Calm   2.0 mph 68% 0.00 in 0 W/m2
22:00 32.9 °F 23.5 °F 30.03 in Calm     68% 0.00 in 0 W/m2
22:06 32.8 °F 23.4 °F 30.03 in Calm   1.0 mph 68% 0.00 in 0 W/m2
22:12 32.6 °F 23.2 °F 30.02 in Calm   1.0 mph 68% 0.00 in 0 W/m2
22:18 32.6 °F 23.6 °F 30.02 in Calm   1.0 mph 69% 0.00 in 0 W/m2
22:24 32.5 °F 23.5 °F 30.02 in Calm     69% 0.00 in 0 W/m2
22:30 32.4 °F 23.4 °F 30.02 in Calm   1.0 mph 69% 0.00 in 0 W/m2
22:36 32.3 °F 23.3 °F 30.02 in Calm   1.0 mph 69% 0.00 in 0 W/m2
22:42 32.3 °F 23.6 °F 30.02 in Calm     70% 0.00 in 0 W/m2
22:48 32.2 °F 23.2 °F 30.02 in Calm   2.0 mph 69% 0.00 in 0 W/m2
22:54 32.2 °F 23.5 °F 30.02 in NW 1.0 mph 4.0 mph 70% 0.00 in 0 W/m2
23:00 32.1 °F 23.4 °F 30.02 in NNW 1.0 mph 1.0 mph 70% 0.00 in 0 W/m2
23:06 32.1 °F 23.4 °F 30.02 in NNW 1.0 mph 2.0 mph 70% 0.00 in 0 W/m2
23:12 32.0 °F 23.7 °F 30.01 in Calm     71% 0.00 in 0 W/m2
23:18 31.9 °F 23.9 °F 30.00 in Calm     72% 0.00 in 0 W/m2
23:24 31.8 °F 23.8 °F 30.00 in NNW 1.0 mph 1.0 mph 72% 0.00 in 0 W/m2
23:30 31.7 °F 23.4 °F 30.00 in NNW 1.0 mph 2.0 mph 71% 0.00 in 0 W/m2
23:36 31.5 °F 23.2 °F 29.99 in North 2.0 mph 4.0 mph 71% 0.00 in 0 W/m2
23:42 31.3 °F 23.0 °F 29.99 in North 3.0 mph 3.0 mph 71% 0.00 in 0 W/m2
23:48 31.1 °F 22.8 °F 29.99 in NNE 3.0 mph 6.0 mph 71% 0.00 in 0 W/m2
23:54 31.0 °F 22.7 °F 29.99 in North 2.0 mph 3.0 mph 71% 0.00 in 0 W/m2
Country Meadow, Clay, NY, USA
Compliments of Weather Underground - 2 mb